EGMC Airport Information

Runway Information
Runway 05 Length 6089 ft width 118 ft
Elevation 49 ft Threshold 571 ft Heading 54
Runway 23 Length 6089 ft Width 118 ft
Elevation 37 ft Threshold 479 ft Heading 234
Airport Frequencies
Type APP Name APP Frequency 130.775 MHZ
Type ATIS Name ATIS Frequency 121.8 MHZ
Type RDR Name RDR Frequency 130.775 MHZ
Type TWR Name TWR Frequency 127.725 MHZ
Airport Navaids
Airport Weather Information & NOTAM
ADDS - METARS form results

(2125 UTC 05 October 2022)
Data provider http://aviationweather.gov/metar/data/
 
METAR text: EGMC 052120Z 26011KT CAVOK 12/08 Q1020
Conditions at: EGMC (SOUTHEND-ON-SEA , GB) observed 2120 UTC 05 October 2022
Temperature: 12.0°C (54°F)
Dewpoint: 8.0°C (46°F) [RH = 76%]
Pressure (altimeter): 30.12 inches Hg (1020.0 mb)
Winds: from the W (260 degrees) at 13 MPH (11 knots; 5.7 m/s)
Visibility: 6 or more miles (10+ km)
Ceiling: ceiling and visibility are OK
Clouds: unknown
Weather: no significant weather observed at this time

METAR text: EGMC 052050Z 25014KT CAVOK 13/07 Q1019
Conditions at: EGMC (SOUTHEND-ON-SEA , GB) observed 2050 UTC 05 October 2022
Temperature: 13.0°C (55°F)
Dewpoint: 7.0°C (45°F) [RH = 67%]
Pressure (altimeter): 30.09 inches Hg (1019.0 mb)
Winds: from the WSW (250 degrees) at 16 MPH (14 knots; 7.2 m/s)
Visibility: 6 or more miles (10+ km)
Ceiling: ceiling and visibility are OK
Clouds: unknown
Weather: no significant weather observed at this time

Forecast for: EGMC (SOUTHEND-ON-SEA , GB)
Text: TAF EGMC 051956Z 0521/0606 25010KT CAVOK
Forecast period: 2100 UTC 05 October 2022 to 0600 UTC 06 October 2022
Forecast type: FROM: standard forecast or significant change
Winds: from the WSW (250 degrees) at 12 MPH (10 knots; 5.1 m/s)
Visibility: 6 or more miles (10+ km)
Ceiling: unknown
Clouds: missing
Weather: NSW  (no significant weather)